Time;durP1;ratioP1;P1;durP2;ratioP2;P2;SDS_P1;SDS_P2;PMS_P1;PMS_P2;Temp;Humidity;BMP_temperature;BMP_pressure;BME280_temperature;BME280_humidity;BME280_pressure;Samples;Min_cycle;Max_cycle;Signal;HPM_P1;HPM_P2
2023/12/22 00:01:19;;;;;;;8.10;1.85;;;11.90;99.90;;;;;;5016097;28;20513;-86
2023/12/22 00:03:46;;;;;;;8.87;1.47;;;11.90;99.90;;;;;;5000277;28;20509;-89
2023/12/22 00:06:12;;;;;;;5.53;1.27;;;11.90;99.90;;;;;;5008115;28;20456;-87
2023/12/22 00:08:38;;;;;;;6.53;1.30;;;11.90;99.90;;;;;;5000185;28;20630;-86
2023/12/22 00:11:04;;;;;;;6.18;1.42;;;11.90;99.90;;;;;;4992667;28;20378;-89
2023/12/22 00:13:32;;;;;;;6.83;1.50;;;11.90;99.90;;;;;;5007182;28;20053;-86
2023/12/22 00:15:58;;;;;;;6.15;1.10;;;11.90;99.90;;;;;;4998587;28;21235;-88
2023/12/22 00:18:24;;;;;;;8.60;1.83;;;11.90;99.90;;;;;;4988787;28;20083;-87
2023/12/22 00:20:49;;;;;;;4.23;1.10;;;11.90;99.90;;;;;;5028768;28;20052;-86
2023/12/22 00:23:15;;;;;;;7.18;1.30;;;11.90;99.90;;;;;;5021015;28;20021;-89
2023/12/22 00:25:42;;;;;;;4.93;1.10;;;13.30;99.90;;;;;;4965599;28;20132;-88
2023/12/22 00:28:08;;;;;;;4.45;1.10;;;11.70;99.90;;;;;;5020391;28;20097;-89
2023/12/22 00:30:34;;;;;;;8.75;1.60;;;11.80;99.90;;;;;;5028610;28;20159;-87
2023/12/22 00:33:00;;;;;;;6.93;1.20;;;11.80;99.90;;;;;;5013601;28;20017;-87
2023/12/22 00:35:26;;;;;;;5.93;1.55;;;11.80;99.90;;;;;;5017320;28;20056;-85
2023/12/22 00:37:52;;;;;;;6.10;1.45;;;11.80;99.90;;;;;;5016157;28;20032;-85
2023/12/22 00:40:18;;;;;;;3.63;1.03;;;11.80;99.90;;;;;;4979991;28;20036;-85
2023/12/22 00:42:44;;;;;;;3.22;0.95;;;11.70;99.90;;;;;;4983188;28;20101;-88
2023/12/22 00:45:10;;;;;;;4.30;1.25;;;11.70;99.90;;;;;;5028151;28;20106;-87
2023/12/22 00:47:36;;;;;;;4.07;0.90;;;11.70;99.90;;;;;;5012143;28;20127;-86
2023/12/22 00:50:04;;;;;;;4.60;1.08;;;11.70;99.90;;;;;;5007158;28;20033;-87
2023/12/22 00:52:31;;;;;;;3.50;0.95;;;11.70;99.90;;;;;;5028023;28;20026;-85
2023/12/22 00:54:57;;;;;;;4.55;0.90;;;11.70;99.90;;;;;;4979247;28;20028;-88
2023/12/22 00:57:23;;;;;;;5.80;0.90;;;11.70;99.90;;;;;;5003818;28;20541;-86
2023/12/22 00:59:49;;;;;;;6.00;1.38;;;11.70;99.90;;;;;;5002865;28;20032;-85
2023/12/22 01:02:15;;;;;;;5.35;1.10;;;11.70;99.90;;;;;;5016641;28;20147;-88
2023/12/22 01:04:42;;;;;;;6.40;1.40;;;11.70;99.90;;;;;;5005299;28;20390;-85
2023/12/22 01:07:09;;;;;;;4.15;1.10;;;11.70;99.90;;;;;;5007436;28;21636;-84
2023/12/22 01:09:36;;;;;;;4.87;1.10;;;11.60;99.90;;;;;;4980761;28;20501;-86
2023/12/22 01:12:03;;;;;;;5.55;1.05;;;11.70;99.90;;;;;;5018305;28;20429;-84
2023/12/22 01:14:30;;;;;;;3.95;1.10;;;11.70;99.90;;;;;;4997130;28;20553;-86
2023/12/22 01:16:55;;;;;;;9.27;1.50;;;13.30;99.90;;;;;;4992744;28;20309;-85
2023/12/22 01:19:21;;;;;;;9.73;1.40;;;11.70;99.90;;;;;;4990753;28;20055;-88
2023/12/22 01:21:47;;;;;;;7.63;1.98;;;11.70;99.90;;;;;;5028906;28;20506;-88
2023/12/22 01:24:13;;;;;;;6.90;1.17;;;11.70;99.90;;;;;;4999546;28;20047;-86
2023/12/22 01:26:39;;;;;;;6.17;1.20;;;11.70;99.90;;;;;;4997914;28;20146;-88
2023/12/22 01:29:05;;;;;;;4.13;1.17;;;10.30;99.90;;;;;;4993382;28;20139;-88
2023/12/22 01:31:31;;;;;;;3.53;1.00;;;11.70;99.90;;;;;;5028529;28;20482;-88
2023/12/22 01:33:56;;;;;;;3.78;0.80;;;10.50;99.90;;;;;;5015310;28;20514;-86
2023/12/22 01:36:22;;;;;;;5.93;1.10;;;11.60;99.90;;;;;;5017430;28;20021;-88
2023/12/22 01:38:48;;;;;;;5.20;1.10;;;11.60;99.90;;;;;;5014364;28;20173;-86
2023/12/22 01:41:14;;;;;;;6.05;1.20;;;11.50;99.90;;;;;;5016782;28;20418;-86
2023/12/22 01:43:39;;;;;;;6.70;1.20;;;11.50;99.90;;;;;;4987686;28;20033;-85
2023/12/22 01:46:07;;;;;;;4.73;0.90;;;11.50;99.90;;;;;;5004599;28;20336;-86
2023/12/22 01:48:34;;;;;;;5.80;1.02;;;11.40;99.90;;;;;;5012141;28;20096;-88
2023/12/22 01:51:01;;;;;;;5.03;1.33;;;11.40;99.90;;;;;;4998220;28;20258;-89
2023/12/22 01:53:28;;;;;;;6.27;1.70;;;11.40;99.90;;;;;;5032361;28;20049;-88
2023/12/22 01:55:55;;;;;;;5.97;1.42;;;11.40;99.90;;;;;;5001972;28;20040;-89
2023/12/22 01:58:23;;;;;;;4.70;1.27;;;11.50;99.90;;;;;;5002925;28;20013;-88
2023/12/22 02:00:49;;;;;;;6.68;1.13;;;11.40;99.90;;;;;;4997972;28;20399;-89
2023/12/22 02:03:16;;;;;;;6.13;1.40;;;11.40;99.90;;;;;;4992531;28;20021;-87
2023/12/22 02:05:43;;;;;;;5.38;1.13;;;11.40;99.90;;;;;;4995940;28;20024;-85
2023/12/22 02:08:10;;;;;;;9.13;1.80;;;11.50;99.90;;;;;;5010229;28;20240;-85
2023/12/22 02:10:37;;;;;;;5.47;1.25;;;11.50;99.90;;;;;;5011023;28;20034;-86
2023/12/22 02:13:06;;;;;;;7.93;2.10;;;11.50;99.90;;;;;;4984102;28;20351;-87
2023/12/22 02:15:33;;;;;;;7.20;1.30;;;11.50;99.90;;;;;;5012439;28;20055;-88
2023/12/22 02:18:09;;;;;;;7.97;1.52;;;11.50;99.90;;;;;;4982565;28;20017;-88
2023/12/22 02:20:36;;;;;;;6.55;1.20;;;11.60;99.90;;;;;;5008010;28;20021;-89
2023/12/22 02:23:02;;;;;;;5.72;1.15;;;11.60;99.90;;;;;;4982785;28;20596;-86
2023/12/22 02:25:28;;;;;;;6.72;1.92;;;11.60;99.90;;;;;;5000219;28;20148;-86
2023/12/22 02:28:07;;;;;;;4.57;1.10;;;11.60;99.90;;;;;;4980485;28;20116;-84
2023/12/22 02:30:52;;;;;;;5.47;1.20;;;11.60;99.90;;;;;;5015804;28;20075;-87
2023/12/22 02:33:20;;;;;;;6.47;1.40;;;11.60;99.90;;;;;;5010901;28;20033;-87
2023/12/22 02:35:48;;;;;;;4.13;1.15;;;11.60;99.90;;;;;;5008039;28;20033;-88
2023/12/22 02:38:16;;;;;;;6.03;1.20;;;11.60;99.90;;;;;;5007294;28;20309;-85
2023/12/22 02:40:43;;;;;;;5.85;1.10;;;11.60;99.90;;;;;;4996391;28;20037;-85
2023/12/22 02:43:09;;;;;;;7.45;1.48;;;11.60;99.90;;;;;;5018032;28;20222;-86
2023/12/22 02:45:35;;;;;;;6.07;1.30;;;11.60;99.90;;;;;;5028992;28;20483;-86
2023/12/22 02:48:01;;;;;;;6.83;1.20;;;11.60;99.90;;;;;;5015401;28;20040;-88
2023/12/22 02:50:27;;;;;;;4.75;0.93;;;11.60;99.90;;;;;;4992355;28;20112;-90
2023/12/22 02:52:53;;;;;;;6.95;1.20;;;11.60;99.90;;;;;;5025989;28;20021;-84
2023/12/22 02:55:18;;;;;;;6.77;1.27;;;11.60;99.90;;;;;;4993556;28;20039;-85
2023/12/22 02:57:44;;;;;;;3.40;1.10;;;11.40;99.90;;;;;;5005720;28;20039;-85
2023/12/22 03:00:10;;;;;;;3.37;0.90;;;11.60;99.90;;;;;;5023004;28;20623;-86
2023/12/22 03:02:36;;;;;;;4.80;1.00;;;11.60;99.90;;;;;;5014369;28;20095;-86
2023/12/22 03:05:02;;;;;;;5.70;1.23;;;11.70;99.90;;;;;;4987744;28;20037;-87
2023/12/22 03:07:28;;;;;;;6.90;1.23;;;11.70;99.90;;;;;;5003099;28;20815;-85
2023/12/22 03:09:54;;;;;;;5.38;1.17;;;11.70;99.90;;;;;;4990350;28;20025;-86
2023/12/22 03:12:19;;;;;;;4.23;1.07;;;11.70;99.90;;;;;;5030702;28;20021;-86
2023/12/22 03:14:45;;;;;;;3.95;1.10;;;11.70;99.90;;;;;;4983787;28;20041;-87
2023/12/22 03:17:11;;;;;;;4.13;1.00;;;11.70;99.90;;;;;;5013139;28;20037;-85
2023/12/22 03:19:37;;;;;;;5.43;1.55;;;11.70;99.90;;;;;;5020549;28;20064;-87
2023/12/22 03:22:03;;;;;;;5.10;1.17;;;11.70;99.90;;;;;;5022257;28;20126;-86
2023/12/22 03:24:29;;;;;;;6.18;1.05;;;11.70;99.90;;;;;;5005527;28;20524;-86
2023/12/22 03:26:55;;;;;;;5.33;1.30;;;11.70;99.90;;;;;;5013873;28;20028;-85
2023/12/22 03:29:21;;;;;;;4.35;1.10;;;11.70;99.90;;;;;;4999751;28;20021;-87
2023/12/22 03:31:46;;;;;;;6.13;1.00;;;11.70;99.90;;;;;;5031099;28;20083;-86
2023/12/22 03:34:13;;;;;;;4.20;0.83;;;10.30;99.90;;;;;;5002289;28;20044;-86
2023/12/22 03:36:40;;;;;;;4.82;1.02;;;11.70;99.90;;;;;;5016572;28;20145;-89
2023/12/22 03:39:06;;;;;;;4.75;1.20;;;11.70;99.90;;;;;;4995080;28;20320;-86
2023/12/22 03:41:31;;;;;;;5.07;1.10;;;11.70;99.90;;;;;;5007892;28;20544;-88
2023/12/22 03:43:58;;;;;;;4.57;1.13;;;11.70;99.90;;;;;;5007352;28;20298;-86
2023/12/22 03:46:24;;;;;;;5.45;1.08;;;11.70;99.90;;;;;;5001294;28;20091;-88
2023/12/22 03:48:51;;;;;;;5.53;1.50;;;11.70;99.90;;;;;;4996399;28;20376;-87
2023/12/22 03:51:17;;;;;;;8.23;1.53;;;11.70;99.90;;;;;;5006118;28;20442;-87
2023/12/22 03:53:43;;;;;;;5.35;1.83;;;11.70;99.90;;;;;;4993090;28;20025;-86
2023/12/22 03:56:09;;;;;;;6.18;1.33;;;11.70;99.90;;;;;;5003652;28;20086;-87
2023/12/22 03:58:38;;;;;;;4.23;1.23;;;11.70;99.90;;;;;;5016564;28;20028;-88
2023/12/22 04:01:04;;;;;;;6.38;1.65;;;11.70;99.90;;;;;;5002794;28;20295;-86
2023/12/22 04:03:30;;;;;;;6.00;1.20;;;11.70;99.90;;;;;;5004653;28;20021;-85
2023/12/22 04:05:56;;;;;;;5.87;1.10;;;11.70;99.90;;;;;;5017156;28;20686;-86
2023/12/22 04:08:22;;;;;;;10.02;2.22;;;11.70;99.90;;;;;;5023579;28;20029;-88
2023/12/22 04:10:50;;;;;;;8.98;1.58;;;11.70;99.90;;;;;;4987704;28;20526;-89
2023/12/22 04:13:16;;;;;;;7.07;1.48;;;11.70;99.90;;;;;;5023400;28;20580;-84
2023/12/22 04:15:42;;;;;;;6.73;1.43;;;11.70;99.90;;;;;;4982898;28;20030;-85
2023/12/22 04:18:08;;;;;;;7.65;1.30;;;11.70;99.90;;;;;;4996094;28;20105;-87
2023/12/22 04:20:34;;;;;;;4.63;1.00;;;11.70;99.90;;;;;;4993662;28;20357;-87
2023/12/22 04:22:59;;;;;;;5.77;1.23;;;11.70;99.90;;;;;;4959521;28;20692;-88
2023/12/22 04:25:25;;;;;;;3.75;0.98;;;11.70;99.90;;;;;;5011445;28;20065;-86
2023/12/22 04:27:52;;;;;;;6.87;1.57;;;11.60;99.90;;;;;;4983794;28;20014;-86
2023/12/22 04:30:19;;;;;;;4.95;1.13;;;11.60;99.90;;;;;;4982811;28;20014;-86
2023/12/22 04:32:46;;;;;;;6.38;1.10;;;11.60;99.90;;;;;;4991913;28;20115;-87
2023/12/22 04:35:12;;;;;;;9.57;1.58;;;11.60;99.90;;;;;;4983885;28;20022;-85
2023/12/22 04:37:38;;;;;;;6.23;1.33;;;11.60;99.90;;;;;;4975987;28;20045;-84
2023/12/22 04:40:04;;;;;;;4.82;1.23;;;11.60;99.90;;;;;;4978902;28;20410;-86
2023/12/22 04:42:31;;;;;;;11.10;1.75;;;11.60;99.90;;;;;;4975515;28;20028;-85
2023/12/22 04:44:57;;;;;;;6.53;1.08;;;11.60;99.90;;;;;;5011746;28;20327;-85
2023/12/22 04:47:24;;;;;;;5.63;1.20;;;11.50;99.90;;;;;;4987164;28;20017;-87
2023/12/22 04:49:49;;;;;;;6.18;1.75;;;11.50;99.90;;;;;;4980864;28;20033;-85
2023/12/22 04:52:15;;;;;;;7.13;1.60;;;11.50;99.90;;;;;;4975903;28;20041;-86
2023/12/22 04:54:41;;;;;;;10.30;1.67;;;11.50;99.90;;;;;;4957084;28;20025;-86
2023/12/22 04:57:07;;;;;;;9.35;1.27;;;11.50;99.90;;;;;;4981423;28;20037;-88
2023/12/22 04:59:33;;;;;;;6.07;1.30;;;11.50;99.90;;;;;;4996327;28;20057;-86
2023/12/22 05:01:58;;;;;;;9.07;1.73;;;10.10;99.90;;;;;;4966149;28;20025;-86
2023/12/22 05:04:24;;;;;;;8.05;1.85;;;11.40;99.90;;;;;;4982692;28;20035;-86
2023/12/22 05:06:50;;;;;;;7.77;1.43;;;11.40;99.90;;;;;;4978628;28;20275;-87
2023/12/22 05:09:16;;;;;;;4.78;1.10;;;11.30;99.90;;;;;;4975529;28;20022;-87
2023/12/22 05:11:42;;;;;;;6.55;1.30;;;11.40;99.90;;;;;;4988485;28;20018;-87
2023/12/22 05:14:10;;;;;;;5.97;1.17;;;11.30;99.90;;;;;;5008809;28;20044;-88
2023/12/22 05:16:35;;;;;;;8.35;1.38;;;11.30;99.90;;;;;;4983671;28;20459;-85
2023/12/22 05:19:01;;;;;;;6.22;1.20;;;11.30;99.90;;;;;;5006887;28;20025;-87
2023/12/22 05:21:30;;;;;;;6.87;1.20;;;11.40;99.90;;;;;;4995679;28;20151;-85
2023/12/22 05:23:55;;;;;;;7.13;1.63;;;11.40;99.90;;;;;;4988354;28;20469;-86
2023/12/22 05:26:21;;;;;;;7.57;1.43;;;11.30;99.90;;;;;;5008504;28;20532;-87
2023/12/22 05:28:49;;;;;;;8.20;1.47;;;11.30;99.90;;;;;;5000287;28;20502;-85
2023/12/22 05:31:17;;;;;;;14.30;2.20;;;11.30;99.90;;;;;;5003158;28;20036;-84
2023/12/22 05:33:42;;;;;;;4.53;1.35;;;11.30;99.90;;;;;;4993254;28;20073;-86
2023/12/22 05:36:08;;;;;;;9.95;1.40;;;11.30;99.90;;;;;;5024004;28;20033;-86
2023/12/22 05:38:40;;;;;;;5.80;1.17;;;11.30;99.90;;;;;;5001329;28;20112;-85
2023/12/22 05:41:06;;;;;;;6.97;1.48;;;11.40;99.90;;;;;;5008424;28;20026;-87
2023/12/22 05:43:35;;;;;;;7.68;1.58;;;11.40;99.90;;;;;;5002896;28;20068;-86
2023/12/22 05:46:01;;;;;;;9.70;1.90;;;11.20;99.90;;;;;;4997419;28;20250;-86
2023/12/22 05:48:27;;;;;;;6.33;1.37;;;11.40;99.90;;;;;;4979135;28;20025;-84
2023/12/22 05:50:57;;;;;;;8.73;1.63;;;11.50;99.90;;;;;;4990515;28;20105;-86
2023/12/22 05:53:23;;;;;;;9.98;1.80;;;11.40;99.90;;;;;;4983352;28;20185;-87
2023/12/22 05:55:49;;;;;;;10.10;1.85;;;11.50;99.90;;;;;;5001233;28;20024;-85
2023/12/22 05:58:15;;;;;;;8.73;1.53;;;11.50;99.90;;;;;;5001820;28;20375;-85
2023/12/22 06:00:40;;;;;;;8.40;1.52;;;11.50;99.90;;;;;;4984144;28;20556;-87
2023/12/22 06:03:06;;;;;;;6.60;1.20;;;11.50;99.90;;;;;;5009741;28;20116;-86
2023/12/22 06:05:32;;;;;;;9.00;1.80;;;11.50;99.90;;;;;;4987717;28;20025;-85
2023/12/22 06:07:58;;;;;;;7.45;2.00;;;11.60;99.90;;;;;;5007511;28;20258;-86
2023/12/22 06:10:24;;;;;;;5.20;1.15;;;11.60;99.90;;;;;;4995154;28;20018;-86
2023/12/22 06:12:50;;;;;;;9.23;1.53;;;11.60;99.90;;;;;;4992659;28;20255;-88
2023/12/22 06:15:15;;;;;;;6.43;1.48;;;11.60;99.90;;;;;;5018581;28;20039;-86
2023/12/22 06:17:41;;;;;;;8.30;1.40;;;11.70;99.90;;;;;;5014721;28;20510;-85
2023/12/22 06:20:07;;;;;;;7.13;1.63;;;11.70;99.90;;;;;;4992820;28;20451;-87
2023/12/22 06:22:33;;;;;;;9.90;2.10;;;11.70;99.90;;;;;;4989853;28;20033;-86
2023/12/22 06:25:00;;;;;;;7.22;1.42;;;11.60;99.90;;;;;;4990085;28;20052;-88
2023/12/22 06:27:26;;;;;;;7.97;1.38;;;11.70;99.90;;;;;;5024160;28;20794;-85
2023/12/22 06:29:52;;;;;;;5.10;1.40;;;11.70;99.90;;;;;;5014943;28;20061;-84
2023/12/22 06:32:18;;;;;;;6.72;1.40;;;11.80;99.90;;;;;;5013552;28;20025;-85
2023/12/22 06:34:43;;;;;;;8.60;1.42;;;11.80;99.90;;;;;;5030170;28;20017;-87
2023/12/22 06:37:10;;;;;;;6.40;1.47;;;11.80;99.90;;;;;;4972484;28;20048;-85
2023/12/22 06:39:36;;;;;;;8.60;1.75;;;11.80;99.90;;;;;;5032580;28;20463;-86
2023/12/22 06:42:03;;;;;;;10.07;1.70;;;11.80;99.90;;;;;;5008742;28;20018;-85
2023/12/22 06:44:31;;;;;;;6.32;1.33;;;11.80;99.90;;;;;;5020584;28;20585;-86
2023/12/22 06:46:57;;;;;;;8.60;1.50;;;11.70;99.90;;;;;;5034645;28;20560;-85
2023/12/22 06:49:23;;;;;;;6.25;1.42;;;11.70;99.90;;;;;;5029543;28;20236;-87
2023/12/22 06:51:48;;;;;;;8.10;1.20;;;11.70;99.90;;;;;;5036200;28;20279;-85
2023/12/22 06:54:14;;;;;;;5.82;1.58;;;11.60;99.90;;;;;;5043395;28;20620;-86
2023/12/22 06:56:40;;;;;;;5.63;1.00;;;11.70;99.90;;;;;;5049532;28;20092;-86
2023/12/22 06:59:06;;;;;;;6.15;1.50;;;11.70;99.90;;;;;;5059890;28;20289;-86
2023/12/22 07:01:33;;;;;;;4.65;1.23;;;11.70;99.90;;;;;;5036577;28;20120;-86
2023/12/22 07:04:01;;;;;;;4.50;1.23;;;11.60;99.90;;;;;;5039415;28;20033;-84
2023/12/22 07:06:31;;;;;;;6.97;1.30;;;11.60;99.90;;;;;;5056462;28;20025;-88
2023/12/22 07:09:17;;;;;;;7.25;1.25;;;11.60;99.90;;;;;;5064132;28;20034;-85
2023/12/22 07:11:52;;;;;;;6.88;1.50;;;13.30;99.90;;;;;;5043074;28;20586;-86
2023/12/22 07:14:18;;;;;;;8.20;1.30;;;11.50;99.90;;;;;;5031085;28;20049;-86
2023/12/22 07:16:44;;;;;;;7.73;1.23;;;11.50;99.90;;;;;;5022360;28;20055;-87
2023/12/22 07:19:13;;;;;;;5.97;1.48;;;11.50;99.90;;;;;;5027175;28;20230;-87
2023/12/22 07:21:42;;;;;;;3.95;0.95;;;11.50;99.90;;;;;;5042972;28;20029;-85
2023/12/22 07:24:08;;;;;;;5.25;1.10;;;11.40;99.90;;;;;;5027323;28;20327;-86
2023/12/22 07:26:33;;;;;;;7.10;1.00;;;11.40;99.90;;;;;;5040493;28;20350;-86
2023/12/22 07:28:59;;;;;;;5.85;1.17;;;11.40;99.90;;;;;;5037217;28;20033;-87
2023/12/22 07:31:25;;;;;;;4.87;1.10;;;11.30;99.90;;;;;;5036802;28;20025;-85
2023/12/22 07:33:52;;;;;;;4.78;1.20;;;11.40;99.90;;;;;;5018767;28;20037;-85
2023/12/22 07:36:23;;;;;;;4.18;1.02;;;11.30;99.90;;;;;;4998606;28;21091;-88
2023/12/22 07:38:49;;;;;;;4.45;1.02;;;11.30;99.90;;;;;;4986568;28;20335;-85
2023/12/22 07:41:15;;;;;;;3.80;1.30;;;11.20;99.90;;;;;;4999007;28;20735;-85
2023/12/22 07:43:41;;;;;;;4.45;1.10;;;11.30;99.90;;;;;;5014873;28;20600;-85
2023/12/22 07:46:09;;;;;;;3.25;1.00;;;11.20;99.90;;;;;;4985953;28;20068;-87
2023/12/22 07:48:35;;;;;;;3.90;1.10;;;11.20;99.90;;;;;;5017608;28;20037;-84
2023/12/22 07:51:01;;;;;;;3.97;1.13;;;11.20;99.90;;;;;;5011548;28;20717;-86
2023/12/22 07:53:26;;;;;;;4.30;1.23;;;11.10;99.90;;;;;;4997525;28;20510;-85
2023/12/22 07:55:52;;;;;;;3.33;0.90;;;11.10;99.90;;;;;;5002707;28;20268;-85
2023/12/22 07:58:19;;;;;;;6.10;1.38;;;11.10;99.90;;;;;;5028336;28;20730;-85
2023/12/22 08:00:46;;;;;;;1.73;0.70;;;11.10;99.90;;;;;;5019094;28;20025;-85
2023/12/22 08:03:11;;;;;;;3.85;1.10;;;11.10;99.90;;;;;;5014062;28;20510;-87
2023/12/22 08:05:37;;;;;;;5.70;1.10;;;11.10;99.90;;;;;;4999595;28;20033;-84
2023/12/22 08:08:04;;;;;;;3.20;0.90;;;11.10;99.90;;;;;;5013370;28;20491;-85
2023/12/22 08:10:29;;;;;;;2.92;0.80;;;11.10;99.90;;;;;;5000159;28;20037;-87
2023/12/22 08:12:55;;;;;;;4.80;1.08;;;11.10;99.90;;;;;;5017634;28;20044;-84
2023/12/22 08:15:21;;;;;;;4.73;1.10;;;11.10;99.90;;;;;;5016630;28;20257;-85
2023/12/22 08:17:50;;;;;;;2.63;1.00;;;11.10;99.90;;;;;;5010808;28;20102;-86
2023/12/22 08:20:20;;;;;;;3.50;1.00;;;11.10;99.90;;;;;;5025830;28;20122;-85
2023/12/22 08:22:50;;;;;;;2.60;0.90;;;11.10;99.90;;;;;;5010680;28;20045;-86
2023/12/22 08:25:25;;;;;;;2.50;0.90;;;11.10;99.90;;;;;;4995899;28;20021;-86
2023/12/22 08:27:51;;;;;;;2.50;1.10;;;11.10;99.90;;;;;;5017512;28;20110;-84
2023/12/22 08:30:17;;;;;;;1.83;0.98;;;11.10;99.90;;;;;;4989299;28;20082;-85
2023/12/22 08:32:43;;;;;;;2.17;0.90;;;11.10;99.90;;;;;;5009163;28;20029;-84
2023/12/22 08:35:09;;;;;;;2.17;1.10;;;11.20;99.90;;;;;;5018004;28;20146;-86
2023/12/22 08:37:35;;;;;;;2.20;0.98;;;11.10;99.90;;;;;;5010224;28;20315;-83
2023/12/22 08:40:00;;;;;;;3.90;1.40;;;11.10;99.90;;;;;;5004739;28;20048;-85
2023/12/22 08:42:29;;;;;;;3.00;1.10;;;11.20;99.90;;;;;;4999183;28;20291;-85
2023/12/22 08:44:54;;;;;;;2.38;0.90;;;11.20;99.90;;;;;;5006806;28;20025;-85
2023/12/22 08:47:20;;;;;;;2.00;1.10;;;11.20;99.90;;;;;;4987191;28;20099;-85
2023/12/22 08:49:46;;;;;;;3.08;1.10;;;11.20;99.90;;;;;;4997997;28;20038;-86
2023/12/22 08:52:13;;;;;;;2.30;1.45;;;11.30;99.90;;;;;;5017492;28;20030;-85
2023/12/22 08:54:39;;;;;;;2.47;1.27;;;11.30;99.90;;;;;;4995574;28;20506;-84
2023/12/22 08:57:05;;;;;;;1.95;1.00;;;11.30;99.90;;;;;;5003725;28;20031;-84
2023/12/22 08:59:31;;;;;;;2.50;1.17;;;11.30;99.90;;;;;;5009169;28;20618;-85
2023/12/22 09:01:57;;;;;;;2.30;1.10;;;11.30;99.90;;;;;;4979184;28;20033;-83
2023/12/22 09:04:22;;;;;;;2.42;1.15;;;11.40;99.90;;;;;;4993926;28;20552;-87
2023/12/22 09:06:49;;;;;;;3.55;1.50;;;11.40;99.90;;;;;;5028122;28;20147;-86
2023/12/22 09:09:15;;;;;;;3.50;1.50;;;11.40;99.90;;;;;;4981083;28;20083;-85
2023/12/22 09:11:43;;;;;;;2.57;1.30;;;11.40;99.90;;;;;;5015318;28;20040;-88
2023/12/22 09:14:10;;;;;;;3.03;1.60;;;11.50;99.90;;;;;;5013771;28;20037;-85
2023/12/22 09:16:36;;;;;;;2.67;1.30;;;11.50;99.90;;;;;;5009433;28;20038;-86
2023/12/22 09:19:03;;;;;;;3.55;1.52;;;11.60;99.90;;;;;;4986561;28;20042;-86
2023/12/22 09:21:29;;;;;;;3.70;1.60;;;11.60;99.90;;;;;;5013148;28;20407;-86
2023/12/22 09:23:54;;;;;;;3.45;1.30;;;11.60;99.90;;;;;;5008942;28;20383;-84
2023/12/22 09:26:20;;;;;;;3.72;1.60;;;11.60;99.90;;;;;;4985037;28;20372;-85
2023/12/22 09:28:46;;;;;;;2.43;1.20;;;11.70;99.90;;;;;;4991496;28;20037;-87
2023/12/22 09:31:15;;;;;;;4.53;1.38;;;11.70;99.90;;;;;;5028632;28;20032;-86
2023/12/22 09:33:42;;;;;;;2.17;1.25;;;11.70;99.90;;;;;;5001934;28;20437;-86
2023/12/22 09:36:08;;;;;;;3.17;1.20;;;11.70;99.90;;;;;;5031306;28;20021;-85
2023/12/22 09:38:36;;;;;;;2.73;1.37;;;11.70;99.90;;;;;;5017790;28;20033;-87
2023/12/22 09:41:02;;;;;;;1.40;1.00;;;11.70;99.90;;;;;;4997843;28;20030;-87
2023/12/22 09:43:28;;;;;;;1.70;0.88;;;11.70;99.90;;;;;;5015037;28;22282;-86
2023/12/22 09:45:55;;;;;;;2.10;0.80;;;11.80;99.90;;;;;;5012337;28;20044;-86
2023/12/22 09:48:27;;;;;;;3.70;1.10;;;11.80;99.90;;;;;;4990602;28;20025;-85
2023/12/22 09:50:56;;;;;;;1.73;0.90;;;11.80;99.90;;;;;;5019336;28;20763;-85
2023/12/22 09:53:24;;;;;;;2.40;1.10;;;11.80;99.90;;;;;;5006618;28;20202;-85
2023/12/22 09:55:50;;;;;;;2.17;0.98;;;11.80;99.90;;;;;;4975641;28;20022;-87
2023/12/22 09:58:16;;;;;;;2.28;1.00;;;11.80;99.90;;;;;;4990627;28;20506;-85
2023/12/22 10:00:43;;;;;;;0.95;0.80;;;11.80;99.90;;;;;;5001484;28;20475;-86
2023/12/22 10:03:11;;;;;;;1.97;1.00;;;11.90;99.90;;;;;;5028259;28;20235;-85
2023/12/22 10:05:39;;;;;;;2.47;1.00;;;11.90;99.90;;;;;;4967530;28;20595;-85
2023/12/22 10:08:06;;;;;;;2.78;1.00;;;11.90;99.90;;;;;;5018486;28;20645;-86
2023/12/22 10:10:32;;;;;;;1.55;0.82;;;12.00;99.90;;;;;;5011269;28;20733;-87
2023/12/22 10:13:03;;;;;;;1.37;1.00;;;11.90;99.90;;;;;;5016019;28;20099;-87
2023/12/22 10:15:31;;;;;;;2.90;1.05;;;12.00;99.90;;;;;;5009899;28;20040;-90
2023/12/22 10:17:57;;;;;;;3.20;1.00;;;12.00;99.90;;;;;;4997697;28;20453;-87
2023/12/22 10:20:23;;;;;;;2.03;0.93;;;12.00;99.90;;;;;;5002495;28;20509;-87
2023/12/22 10:22:49;;;;;;;2.57;1.10;;;12.00;99.90;;;;;;5006177;28;20037;-86
2023/12/22 10:25:18;;;;;;;2.20;1.00;;;12.00;99.90;;;;;;5009109;28;20038;-86
2023/12/22 10:27:44;;;;;;;2.53;1.00;;;12.10;99.90;;;;;;4993837;28;20036;-86
2023/12/22 10:30:10;;;;;;;2.60;0.93;;;12.10;99.90;;;;;;5007132;28;20353;-85
2023/12/22 10:32:42;;;;;;;1.70;0.85;;;12.10;99.90;;;;;;5015919;28;20033;-84
2023/12/22 10:35:09;;;;;;;2.72;1.10;;;12.10;99.90;;;;;;4997265;28;21251;-84
2023/12/22 10:37:36;;;;;;;2.77;0.97;;;;;;;;;;5011402;28;20542;-90
2023/12/22 10:40:05;;;;;;;2.85;1.10;;;12.20;99.90;;;;;;4976490;28;20032;-85
2023/12/22 10:42:31;;;;;;;1.75;0.90;;;12.20;99.90;;;;;;4979579;28;20029;-86
2023/12/22 10:44:57;;;;;;;2.50;1.00;;;12.30;99.90;;;;;;5015938;28;20522;-85
2023/12/22 10:47:23;;;;;;;2.65;0.85;;;12.30;99.90;;;;;;5011459;28;20104;-87
2023/12/22 10:49:50;;;;;;;1.43;0.80;;;12.40;99.90;;;;;;5004282;28;20107;-86
2023/12/22 10:52:17;;;;;;;1.50;0.90;;;12.40;99.90;;;;;;5025208;28;20021;-86
2023/12/22 10:54:43;;;;;;;1.73;0.75;;;12.40;99.90;;;;;;5006196;28;20095;-87
2023/12/22 10:57:11;;;;;;;2.28;0.90;;;12.50;99.90;;;;;;5001649;28;20749;-87
2023/12/22 10:59:45;;;;;;;1.38;0.80;;;12.50;99.90;;;;;;4995309;28;20434;-87
2023/12/22 11:02:16;;;;;;;1.87;0.90;;;12.50;99.90;;;;;;5013621;28;20038;-86
2023/12/22 11:05:00;;;;;;;1.63;0.70;;;12.50;99.90;;;;;;4998040;28;20581;-84
2023/12/22 11:07:28;;;;;;;3.47;1.10;;;12.60;99.90;;;;;;4996800;28;20229;-86
2023/12/22 11:09:59;;;;;;;2.05;0.90;;;12.60;99.90;;;;;;4985284;28;20049;-88
2023/12/22 11:12:28;;;;;;;2.13;0.80;;;12.60;99.90;;;;;;4986457;28;20026;-87
2023/12/22 11:14:55;;;;;;;2.83;0.70;;;12.60;99.90;;;;;;4980633;28;20060;-87
2023/12/22 11:17:22;;;;;;;1.77;1.00;;;12.60;99.90;;;;;;5017255;28;20031;-85
2023/12/22 11:19:50;;;;;;;3.28;0.80;;;12.60;99.90;;;;;;5006204;28;20410;-86
2023/12/22 11:22:20;;;;;;;1.55;0.80;;;9.60;99.90;;;;;;4982098;28;20599;-87
2023/12/22 11:24:49;;;;;;;1.20;0.68;;;12.60;99.90;;;;;;5016972;28;20108;-85
2023/12/22 11:27:19;;;;;;;4.23;0.80;;;12.70;99.90;;;;;;5021185;28;20108;-86
2023/12/22 11:29:50;;;;;;;2.70;0.88;;;12.70;99.90;;;;;;5015018;28;20745;-85
2023/12/22 11:32:18;;;;;;;0.95;0.68;;;12.70;99.90;;;;;;5028440;28;20017;-87
2023/12/22 11:34:45;;;;;;;2.15;0.90;;;12.70;99.90;;;;;;4988517;28;20033;-85
2023/12/22 11:37:15;;;;;;;2.92;0.90;;;12.70;99.90;;;;;;5019778;28;20029;-86
2023/12/22 11:39:46;;;;;;;1.87;0.80;;;12.60;99.90;;;;;;5001219;28;20037;-86
2023/12/22 11:42:17;;;;;;;3.63;0.80;;;12.60;99.90;;;;;;5007701;28;22231;-85
2023/12/22 11:44:43;;;;;;;1.52;0.85;;;12.60;99.90;;;;;;5005075;28;20029;-85
2023/12/22 11:47:10;;;;;;;1.75;0.80;;;12.60;99.90;;;;;;5003330;28;20021;-85
2023/12/22 11:49:37;;;;;;;2.15;0.80;;;12.60;99.90;;;;;;4989291;28;20430;-88
2023/12/22 11:52:17;;;;;;;1.50;0.80;;;12.60;99.90;;;;;;5012994;28;20135;-87
2023/12/22 11:54:51;;;;;;;1.15;0.70;;;12.60;99.90;;;;;;4986022;28;20415;-87
2023/12/22 11:57:34;;;;;;;1.45;0.80;;;12.70;99.90;;;;;;5014108;28;20506;-85
2023/12/22 12:00:12;;;;;;;1.80;0.82;;;12.70;99.90;;;;;;4986175;28;21244;-84
2023/12/22 12:02:40;;;;;;;1.20;0.60;;;12.70;99.90;;;;;;4984738;28;20033;-88
2023/12/22 12:05:08;;;;;;;1.53;0.70;;;12.70;99.90;;;;;;5007167;28;20586;-84
2023/12/22 12:07:44;;;;;;;2.17;0.80;;;12.80;99.90;;;;;;5014653;28;20038;-84
2023/12/22 12:10:33;;;;;;;2.63;0.80;;;12.80;99.90;;;;;;5015537;28;20048;-87
2023/12/22 12:13:09;;;;;;;1.63;0.75;;;12.80;99.90;;;;;;4999613;28;20051;-88
2023/12/22 12:15:36;;;;;;;1.20;0.70;;;12.90;99.90;;;;;;4991673;28;20049;-86
2023/12/22 12:18:03;;;;;;;1.47;0.70;;;12.90;99.90;;;;;;5014994;28;20087;-87
2023/12/22 12:20:29;;;;;;;1.23;0.68;;;13.00;99.90;;;;;;5020656;28;20474;-88
2023/12/22 12:22:55;;;;;;;1.92;0.70;;;13.10;99.90;;;;;;5001309;28;20154;-86
2023/12/22 12:25:29;;;;;;;2.47;0.68;;;13.00;99.90;;;;;;5001732;28;20097;-85
2023/12/22 12:28:06;;;;;;;1.75;0.70;;;13.10;99.90;;;;;;5026171;28;20170;-86
2023/12/22 12:30:32;;;;;;;2.80;0.80;;;13.10;99.90;;;;;;5023255;28;20029;-89
2023/12/22 12:33:09;;;;;;;1.80;0.70;;;11.80;99.90;;;;;;4993437;28;20178;-85
2023/12/22 12:35:37;;;;;;;2.20;0.90;;;13.20;99.90;;;;;;4993326;28;20529;-85
2023/12/22 12:38:03;;;;;;;3.03;0.70;;;13.20;99.90;;;;;;5003693;28;20021;-84
2023/12/22 12:40:32;;;;;;;1.52;0.70;;;13.20;99.90;;;;;;4988946;28;20063;-87
2023/12/22 12:42:58;;;;;;;3.13;0.70;;;13.30;99.90;;;;;;4999309;28;20239;-86
2023/12/22 12:45:25;;;;;;;1.42;0.60;;;13.30;99.90;;;;;;5010513;28;20095;-85
2023/12/22 12:48:09;;;;;;;1.20;0.50;;;13.20;99.90;;;;;;5008010;28;20714;-89